PWSweather.com
Personal Weather Stations
Station Observations
IMAZOWIE6
WarszawaPL

WarszawaPL

Lat: 52.27957, Lon: 21.05489

Elevation: 100

Station Type: WS1080

http://stacjapogody.waw.pl/

High Low Average
Temperature 76.1°F24.5°C 52.9°F11.6°C 67.0°F19.4°C
Dew Point -165.2°F-109.6°C -167.5°F-110.8°C -166.1°F-110.1°C
Winds 3.4 mph 5.5 kmh Calm Calm Calm NCalm N
Wind Gusts 6.2 mph10.0 kmh -- 1.0 mph1.6 kmh
Humidity - - -
Pressure 29.66 in1004.4 mb 29.58 in1001.7 mb -
Precipitation 0.00 in0.0 mm - -
Hour Temp Dew Point Humidity Winds Wind Gusts Pressure Precip Precip Rate Daily Precip Total
12:02 AM 56.5°F13.6°C -167.2°F-110.7°C - 0.6 mph N1.0 kmh N 2.8 mph4.5 kmh 29.62 in1003.0 mb 0.00 in0.0 mm 0.00 in0.0 mm 0.00 in0.0 mm
12:17 AM 56.1°F13.4°C -167.2°F-110.7°C - 0.6 mph N1.0 kmh N 2.0 mph3.2 kmh 29.62 in1003.0 mb 0.00 in0.0 mm 0.00 in0.0 mm 0.00 in0.0 mm
12:32 AM 55.9°F13.3°C -167.2°F-110.7°C - 0.6 mph N1.0 kmh N 2.8 mph4.5 kmh 29.63 in1003.4 mb 0.00 in0.0 mm 0.00 in0.0 mm 0.00 in0.0 mm
12:47 AM 55.6°F13.1°C -167.2°F-110.7°C - 0.6 mph N1.0 kmh N 2.0 mph3.2 kmh 29.63 in1003.4 mb 0.00 in0.0 mm 0.00 in0.0 mm 0.00 in0.0 mm
01:02 AM 55.6°F13.1°C -167.2°F-110.7°C - 0.6 mph N1.0 kmh N 2.8 mph4.5 kmh 29.63 in1003.4 mb 0.00 in0.0 mm 0.00 in0.0 mm 0.00 in0.0 mm
01:17 AM 55.6°F13.1°C -167.2°F-110.7°C - Calm Calm 0.6 mph1.0 kmh 29.63 in1003.4 mb 0.00 in0.0 mm 0.00 in0.0 mm 0.00 in0.0 mm
01:32 AM 54.9°F12.7°C -167.3°F-110.7°C - Calm Calm 1.4 mph2.3 kmh 29.63 in1003.4 mb 0.00 in0.0 mm 0.00 in0.0 mm 0.00 in0.0 mm
01:47 AM 54.3°F12.4°C -167.4°F-110.8°C - Calm Calm 1.4 mph2.3 kmh 29.62 in1003.0 mb 0.00 in0.0 mm 0.00 in0.0 mm 0.00 in0.0 mm
02:02 AM 54.0°F12.2°C -167.4°F-110.8°C - Calm Calm -- 29.62 in1003.0 mb 0.00 in0.0 mm 0.00 in0.0 mm 0.00 in0.0 mm
02:17 AM 53.6°F12.0°C -167.4°F-110.8°C - Calm Calm 0.6 mph1.0 kmh 29.62 in1003.0 mb 0.00 in0.0 mm 0.00 in0.0 mm 0.00 in0.0 mm
02:33 AM 53.6°F12.0°C -167.4°F-110.8°C - Calm Calm 0.6 mph1.0 kmh 29.62 in1003.0 mb 0.00 in0.0 mm 0.00 in0.0 mm 0.00 in0.0 mm
02:48 AM 53.4°F11.9°C -167.5°F-110.8°C - 0.6 mph N1.0 kmh N 2.0 mph3.2 kmh 29.62 in1003.0 mb 0.00 in0.0 mm 0.00 in0.0 mm 0.00 in0.0 mm
03:02 AM 53.1°F11.7°C -167.5°F-110.8°C - Calm Calm 0.6 mph1.0 kmh 29.61 in1002.7 mb 0.00 in0.0 mm 0.00 in0.0 mm 0.00 in0.0 mm
03:17 AM 52.9°F11.6°C -167.5°F-110.8°C - Calm Calm 1.4 mph2.3 kmh 29.61 in1002.7 mb 0.00 in0.0 mm 0.00 in0.0 mm 0.00 in0.0 mm
03:32 AM 52.9°F11.6°C -167.5°F-110.8°C - Calm Calm 2.0 mph3.2 kmh 29.61 in1002.7 mb 0.00 in0.0 mm 0.00 in0.0 mm 0.00 in0.0 mm
03:47 AM 54.5°F12.5°C -167.4°F-110.8°C - 0.6 mph N1.0 kmh N 2.8 mph4.5 kmh 29.61 in1002.7 mb 0.00 in0.0 mm 0.00 in0.0 mm 0.00 in0.0 mm
04:02 AM 57.9°F14.4°C -167.0°F-110.6°C - Calm Calm 2.0 mph3.2 kmh 29.61 in1002.7 mb 0.00 in0.0 mm 0.00 in0.0 mm 0.00 in0.0 mm
04:17 AM 59.5°F15.3°C -166.8°F-110.4°C - 0.6 mph N1.0 kmh N 2.0 mph3.2 kmh 29.61 in1002.7 mb 0.00 in0.0 mm 0.00 in0.0 mm 0.00 in0.0 mm
04:32 AM 64.2°F17.9°C -166.4°F-110.2°C - 0.6 mph N1.0 kmh N 2.8 mph4.5 kmh 29.61 in1002.7 mb 0.00 in0.0 mm 0.00 in0.0 mm 0.00 in0.0 mm
04:47 AM 67.3°F19.6°C -166.1°F-110.1°C - 0.6 mph N1.0 kmh N 2.0 mph3.2 kmh 29.61 in1002.7 mb 0.00 in0.0 mm 0.00 in0.0 mm 0.00 in0.0 mm
05:02 AM 68.9°F20.5°C -165.9°F-109.9°C - Calm Calm 2.0 mph3.2 kmh 29.61 in1002.7 mb 0.00 in0.0 mm 0.00 in0.0 mm 0.00 in0.0 mm
05:17 AM 70.0°F21.1°C -165.8°F-109.9°C - 0.6 mph N1.0 kmh N 3.4 mph5.5 kmh 29.61 in1002.7 mb 0.00 in0.0 mm 0.00 in0.0 mm 0.00 in0.0 mm
05:32 AM 71.2°F21.8°C -165.7°F-109.8°C - 0.6 mph N1.0 kmh N 2.8 mph4.5 kmh 29.61 in1002.7 mb 0.00 in0.0 mm 0.00 in0.0 mm 0.00 in0.0 mm
05:47 AM 72.3°F22.4°C -165.6°F-109.8°C - 0.6 mph N1.0 kmh N 2.0 mph3.2 kmh 29.61 in1002.7 mb 0.00 in0.0 mm 0.00 in0.0 mm 0.00 in0.0 mm
06:02 AM 71.4°F21.9°C -165.7°F-109.8°C - Calm Calm 0.6 mph1.0 kmh 29.61 in1002.7 mb 0.00 in0.0 mm 0.00 in0.0 mm 0.00 in0.0 mm
06:17 AM 71.6°F22.0°C -165.6°F-109.8°C - Calm Calm 1.4 mph2.3 kmh 29.61 in1002.7 mb 0.02 in0.5 mm 0.10 in2.5 mm 0.02 in0.5 mm
06:32 AM 72.3°F22.4°C -165.6°F-109.8°C - Calm Calm 1.4 mph2.3 kmh 29.61 in1002.7 mb 0.02 in0.5 mm 0.00 in0.0 mm 0.02 in0.5 mm
06:47 AM 73.9°F23.3°C -165.4°F-109.7°C - Calm Calm 1.4 mph2.3 kmh 29.61 in1002.7 mb 0.02 in0.5 mm 0.00 in0.0 mm 0.02 in0.5 mm
07:02 AM 72.0°F22.2°C -165.6°F-109.8°C - Calm Calm 1.4 mph2.3 kmh 29.61 in1002.7 mb 0.02 in0.5 mm 0.00 in0.0 mm 0.02 in0.5 mm
07:17 AM 71.4°F21.9°C -165.7°F-109.8°C - 0.6 mph N1.0 kmh N 2.0 mph3.2 kmh 29.61 in1002.7 mb 0.00 in0.0 mm 0.00 in0.0 mm 0.02 in0.5 mm
07:32 AM 73.4°F23.0°C -165.5°F-109.7°C - 1.4 mph N2.3 kmh N 3.4 mph5.5 kmh 29.61 in1002.7 mb 0.00 in0.0 mm 0.00 in0.0 mm 0.02 in0.5 mm
07:47 AM 73.9°F23.3°C -165.4°F-109.7°C - 0.6 mph N1.0 kmh N 2.8 mph4.5 kmh 29.61 in1002.7 mb 0.00 in0.0 mm 0.00 in0.0 mm 0.02 in0.5 mm
08:02 AM 76.1°F24.5°C -165.2°F-109.6°C - 2.0 mph N3.2 kmh N 4.8 mph7.7 kmh 29.61 in1002.7 mb 0.00 in0.0 mm 0.00 in0.0 mm 0.02 in0.5 mm
08:17 AM 76.1°F24.5°C -165.2°F-109.6°C - Calm Calm 2.8 mph4.5 kmh 29.61 in1002.7 mb 0.00 in0.0 mm 0.00 in0.0 mm 0.02 in0.5 mm
08:32 AM 74.8°F23.8°C -165.3°F-109.6°C - 0.6 mph N1.0 kmh N 2.8 mph4.5 kmh 29.60 in1002.4 mb 0.00 in0.0 mm 0.00 in0.0 mm 0.02 in0.5 mm
08:47 AM 76.1°F24.5°C -165.2°F-109.6°C - 2.0 mph N3.2 kmh N 5.4 mph8.7 kmh 29.60 in1002.4 mb 0.00 in0.0 mm 0.00 in0.0 mm 0.02 in0.5 mm
09:02 AM 75.9°F24.4°C -165.2°F-109.6°C - 3.4 mph N5.5 kmh N 5.4 mph8.7 kmh 29.61 in1002.7 mb 0.00 in0.0 mm 0.00 in0.0 mm 0.02 in0.5 mm
09:18 AM 74.7°F23.7°C -165.3°F-109.6°C - 1.4 mph N2.3 kmh N 4.0 mph6.4 kmh 29.60 in1002.4 mb 0.00 in0.0 mm 0.00 in0.0 mm 0.02 in0.5 mm
09:34 AM 75.7°F24.3°C -165.2°F-109.6°C - Calm Calm 2.0 mph3.2 kmh 29.60 in1002.4 mb 0.00 in0.0 mm 0.00 in0.0 mm 0.02 in0.5 mm
09:50 AM 75.2°F24.0°C -165.3°F-109.6°C - 0.6 mph N1.0 kmh N 3.4 mph5.5 kmh 29.60 in1002.4 mb 0.00 in0.0 mm 0.00 in0.0 mm 0.02 in0.5 mm
10:06 AM 74.5°F23.6°C -165.4°F-109.7°C - Calm Calm 2.8 mph4.5 kmh 29.60 in1002.4 mb 0.00 in0.0 mm 0.00 in0.0 mm 0.02 in0.5 mm
10:17 AM 73.2°F22.9°C -165.5°F-109.7°C - Calm Calm 1.4 mph2.3 kmh 29.60 in1002.4 mb 0.00 in0.0 mm 0.00 in0.0 mm 0.02 in0.5 mm
10:33 AM 73.9°F23.3°C -165.4°F-109.7°C - Calm Calm 2.8 mph4.5 kmh 29.60 in1002.4 mb 0.00 in0.0 mm 0.00 in0.0 mm 0.02 in0.5 mm
10:49 AM 73.2°F22.9°C -165.5°F-109.7°C - Calm Calm 0.6 mph1.0 kmh 29.59 in1002.0 mb 0.00 in0.0 mm 0.00 in0.0 mm 0.02 in0.5 mm
11:05 AM 72.3°F22.4°C -165.6°F-109.8°C - 2.8 mph N4.5 kmh N 6.2 mph10.0 kmh 29.59 in1002.0 mb 0.00 in0.0 mm 0.00 in0.0 mm 0.02 in0.5 mm
11:21 AM 72.3°F22.4°C -165.6°F-109.8°C - 0.6 mph N1.0 kmh N 3.4 mph5.5 kmh 29.59 in1002.0 mb 0.00 in0.0 mm 0.00 in0.0 mm 0.02 in0.5 mm
11:32 AM 72.3°F22.4°C -165.6°F-109.8°C - 1.4 mph N2.3 kmh N 3.4 mph5.5 kmh 29.59 in1002.0 mb 0.00 in0.0 mm 0.00 in0.0 mm 0.02 in0.5 mm
11:47 AM 72.5°F22.5°C -165.6°F-109.8°C - Calm Calm 0.6 mph1.0 kmh 29.59 in1002.0 mb 0.00 in0.0 mm 0.00 in0.0 mm 0.02 in0.5 mm
12:02 PM 72.9°F22.7°C -165.5°F-109.7°C - Calm Calm 1.4 mph2.3 kmh 29.59 in1002.0 mb 0.00 in0.0 mm 0.00 in0.0 mm 0.02 in0.5 mm
12:18 PM 72.9°F22.7°C -165.5°F-109.7°C - Calm Calm 1.4 mph2.3 kmh 29.59 in1002.0 mb 0.00 in0.0 mm 0.00 in0.0 mm 0.02 in0.5 mm
12:34 PM 72.9°F22.7°C -165.5°F-109.7°C - Calm Calm 1.4 mph2.3 kmh 29.59 in1002.0 mb 0.00 in0.0 mm 0.00 in0.0 mm 0.02 in0.5 mm
12:50 PM 73.2°F22.9°C -165.5°F-109.7°C - Calm Calm 1.4 mph2.3 kmh 29.59 in1002.0 mb 0.00 in0.0 mm 0.00 in0.0 mm 0.02 in0.5 mm
01:06 PM 72.9°F22.7°C -165.5°F-109.7°C - 1.4 mph N2.3 kmh N 4.0 mph6.4 kmh 29.59 in1002.0 mb 0.00 in0.0 mm 0.00 in0.0 mm 0.02 in0.5 mm
01:17 PM 72.9°F22.7°C -165.5°F-109.7°C - Calm Calm 0.6 mph1.0 kmh 29.58 in1001.7 mb 0.00 in0.0 mm 0.00 in0.0 mm 0.02 in0.5 mm
01:32 PM 74.7°F23.7°C -165.3°F-109.6°C - Calm Calm 2.0 mph3.2 kmh 29.58 in1001.7 mb 0.00 in0.0 mm 0.00 in0.0 mm 0.02 in0.5 mm
01:47 PM 74.5°F23.6°C -165.4°F-109.7°C - Calm Calm 1.4 mph2.3 kmh 29.58 in1001.7 mb 0.00 in0.0 mm 0.00 in0.0 mm 0.02 in0.5 mm
02:02 PM 73.9°F23.3°C -165.4°F-109.7°C - Calm Calm 2.8 mph4.5 kmh 29.59 in1002.0 mb 0.00 in0.0 mm 0.00 in0.0 mm 0.02 in0.5 mm
02:17 PM 73.6°F23.1°C -165.4°F-109.7°C - 1.4 mph N2.3 kmh N 2.8 mph4.5 kmh 29.59 in1002.0 mb 0.00 in0.0 mm 0.00 in0.0 mm 0.02 in0.5 mm
02:32 PM 73.4°F23.0°C -165.5°F-109.7°C - Calm Calm 0.6 mph1.0 kmh 29.59 in1002.0 mb 0.00 in0.0 mm 0.00 in0.0 mm 0.02 in0.5 mm
02:47 PM 73.0°F22.8°C -165.5°F-109.7°C - Calm Calm 0.6 mph1.0 kmh 29.59 in1002.0 mb 0.00 in0.0 mm 0.00 in0.0 mm 0.02 in0.5 mm
03:02 PM 72.5°F22.5°C -165.6°F-109.8°C - Calm Calm -- 29.59 in1002.0 mb 0.00 in0.0 mm 0.00 in0.0 mm 0.02 in0.5 mm
03:17 PM 72.7°F22.6°C -165.5°F-109.7°C - Calm Calm -- 29.59 in1002.0 mb 0.00 in0.0 mm 0.00 in0.0 mm 0.02 in0.5 mm
03:32 PM 72.5°F22.5°C -165.6°F-109.8°C - Calm Calm 0.6 mph1.0 kmh 29.59 in1002.0 mb 0.00 in0.0 mm 0.00 in0.0 mm 0.02 in0.5 mm
03:47 PM 71.8°F22.1°C -165.6°F-109.8°C - Calm Calm 0.6 mph1.0 kmh 29.59 in1002.0 mb 0.00 in0.0 mm 0.00 in0.0 mm 0.02 in0.5 mm
04:02 PM 71.4°F21.9°C -165.7°F-109.8°C - Calm Calm 0.6 mph1.0 kmh 29.59 in1002.0 mb 0.00 in0.0 mm 0.00 in0.0 mm 0.02 in0.5 mm
04:17 PM 70.7°F21.5°C -165.7°F-109.8°C - Calm Calm 0.6 mph1.0 kmh 29.59 in1002.0 mb 0.00 in0.0 mm 0.00 in0.0 mm 0.02 in0.5 mm
04:32 PM 70.9°F21.6°C -165.7°F-109.8°C - Calm Calm 1.4 mph2.3 kmh 29.59 in1002.0 mb 0.00 in0.0 mm 0.00 in0.0 mm 0.02 in0.5 mm
04:47 PM 70.9°F21.6°C -165.7°F-109.8°C - Calm Calm 0.6 mph1.0 kmh 29.59 in1002.0 mb 0.00 in0.0 mm 0.00 in0.0 mm 0.02 in0.5 mm
05:02 PM 70.3°F21.3°C -165.8°F-109.9°C - Calm Calm 0.6 mph1.0 kmh 29.60 in1002.4 mb 0.00 in0.0 mm 0.00 in0.0 mm 0.02 in0.5 mm
05:17 PM 70.0°F21.1°C -165.8°F-109.9°C - Calm Calm 0.6 mph1.0 kmh 29.59 in1002.0 mb 0.00 in0.0 mm 0.00 in0.0 mm 0.02 in0.5 mm
05:32 PM 70.0°F21.1°C -165.8°F-109.9°C - Calm Calm 0.6 mph1.0 kmh 29.59 in1002.0 mb 0.00 in0.0 mm 0.00 in0.0 mm 0.02 in0.5 mm
05:47 PM 69.6°F20.9°C -165.8°F-109.9°C - Calm Calm 0.6 mph1.0 kmh 29.59 in1002.0 mb 0.00 in0.0 mm 0.00 in0.0 mm 0.02 in0.5 mm
06:02 PM 69.4°F20.8°C -165.9°F-109.9°C - Calm Calm -- 29.59 in1002.0 mb 0.00 in0.0 mm 0.00 in0.0 mm 0.02 in0.5 mm
06:17 PM 69.3°F20.7°C -165.9°F-109.9°C - Calm Calm 1.4 mph2.3 kmh 29.59 in1002.0 mb 0.00 in0.0 mm 0.00 in0.0 mm 0.02 in0.5 mm
06:32 PM 69.1°F20.6°C -165.9°F-109.9°C - Calm Calm -- 29.59 in1002.0 mb 0.00 in0.0 mm 0.00 in0.0 mm 0.02 in0.5 mm
06:47 PM 68.7°F20.4°C -165.9°F-109.9°C - Calm Calm -- 29.59 in1002.0 mb 0.00 in0.0 mm 0.00 in0.0 mm 0.02 in0.5 mm
07:02 PM 68.4°F20.2°C -166.0°F-110.0°C - Calm Calm 0.6 mph1.0 kmh 29.59 in1002.0 mb 0.00 in0.0 mm 0.00 in0.0 mm 0.02 in0.5 mm
07:17 PM 67.8°F19.9°C -166.0°F-110.0°C - Calm Calm -- 29.59 in1002.0 mb 0.00 in0.0 mm 0.00 in0.0 mm 0.02 in0.5 mm
07:32 PM 67.3°F19.6°C -166.1°F-110.1°C - Calm Calm -- 29.59 in1002.0 mb 0.00 in0.0 mm 0.00 in0.0 mm 0.02 in0.5 mm
07:47 PM 66.9°F19.4°C -166.1°F-110.1°C - Calm Calm -- 29.59 in1002.0 mb 0.00 in0.0 mm 0.00 in0.0 mm 0.02 in0.5 mm
08:02 PM 66.4°F19.1°C -166.2°F-110.1°C - Calm Calm -- 29.59 in1002.0 mb 0.00 in0.0 mm 0.00 in0.0 mm 0.02 in0.5 mm
08:17 PM 65.8°F18.8°C -166.2°F-110.1°C - Calm Calm -- 29.60 in1002.4 mb 0.00 in0.0 mm 0.00 in0.0 mm 0.02 in0.5 mm
08:32 PM 65.7°F18.7°C -166.2°F-110.1°C - Calm Calm -- 29.60 in1002.4 mb 0.00 in0.0 mm 0.00 in0.0 mm 0.02 in0.5 mm
08:47 PM 65.3°F18.5°C -166.3°F-110.2°C - Calm Calm -- 29.60 in1002.4 mb 0.00 in0.0 mm 0.00 in0.0 mm 0.02 in0.5 mm
09:02 PM 64.9°F18.3°C -166.3°F-110.2°C - Calm Calm 0.6 mph1.0 kmh 29.61 in1002.7 mb 0.00 in0.0 mm 0.00 in0.0 mm 0.02 in0.5 mm
09:17 PM 64.0°F17.8°C -166.4°F-110.2°C - Calm Calm 0.6 mph1.0 kmh 29.61 in1002.7 mb 0.00 in0.0 mm 0.00 in0.0 mm 0.02 in0.5 mm
09:32 PM 62.6°F17.0°C -166.5°F-110.3°C - Calm Calm 0.6 mph1.0 kmh 29.62 in1003.0 mb 0.00 in0.0 mm 0.00 in0.0 mm 0.02 in0.5 mm
09:47 PM 61.5°F16.4°C -166.6°F-110.3°C - Calm Calm -- 29.62 in1003.0 mb 0.00 in0.0 mm 0.00 in0.0 mm 0.02 in0.5 mm
10:02 PM 60.6°F15.9°C -166.7°F-110.4°C - Calm Calm -- 29.62 in1003.0 mb 0.00 in0.0 mm 0.00 in0.0 mm 0.02 in0.5 mm
10:18 PM 59.9°F15.5°C -166.8°F-110.4°C - Calm Calm -- 29.63 in1003.4 mb 0.00 in0.0 mm 0.00 in0.0 mm 0.02 in0.5 mm
10:34 PM 59.4°F15.2°C -166.9°F-110.5°C - Calm Calm -- 29.63 in1003.4 mb 0.00 in0.0 mm 0.00 in0.0 mm 0.02 in0.5 mm
10:50 PM 58.6°F14.8°C -166.9°F-110.5°C - Calm Calm -- 29.64 in1003.7 mb 0.00 in0.0 mm 0.00 in0.0 mm 0.02 in0.5 mm
11:06 PM 58.1°F14.5°C -167.0°F-110.6°C - Calm Calm -- 29.65 in1004.1 mb 0.00 in0.0 mm 0.00 in0.0 mm 0.02 in0.5 mm
11:17 PM 56.8°F13.8°C -167.1°F-110.6°C - Calm Calm 0.6 mph1.0 kmh 29.65 in1004.1 mb 0.00 in0.0 mm 0.00 in0.0 mm 0.02 in0.5 mm
11:33 PM 56.1°F13.4°C -167.2°F-110.7°C - Calm Calm -- 29.65 in1004.1 mb 0.00 in0.0 mm 0.00 in0.0 mm 0.02 in0.5 mm
11:49 PM 55.4°F13.0°C -167.3°F-110.7°C - Calm Calm -- 29.66 in1004.4 mb 0.00 in0.0 mm 0.00 in0.0 mm 0.02 in0.5 mm